PWSweather.com
Personal Weather Stations
Station Observations
K4FB1
Clubhouse Heritage, Lakeland, FL 33812

Clubhouse HeritageLakeland, FL 33812

Lat: 27.969224, Lon: -81.897769

Elevation: 145

Station Type: Davis Vantage Pro2

http://www.ClubhouseWX.com

High Low Average
Temperature 91.8°F33.2°C 62.5°F16.9°C 74.0°F23.3°C
Dew Point 70.9°F21.6°C -37.6°F-38.7°C 11.3°F-11.5°C
Winds 6.0 mph 9.7 kmh Calm Calm 2.0 mph E3.2 kmh E
Wind Gusts 19.0 mph30.6 kmh 1.0 mph1.6 kmh 6.0 mph9.7 kmh
Humidity 67% 0% 23%
Pressure 30.14 in1020.7 mb 29.97 in1014.9 mb -
Precipitation 1.76 in44.7 mm - -
Hour Temp Dew Point Humidity Winds Wind Gusts Pressure Precip Precip Rate Daily Precip Total
12:00 AM 68.3°F20.2°C 18.8°F-7.3°C 15% 2.0 mph ENE3.2 kmh ENE 7.0 mph11.3 kmh 30.12 in1020.0 mb 0.00 in0.0 mm 0.00 in0.0 mm 0.00 in0.0 mm
12:05 AM 68.3°F20.2°C 20.3°F-6.5°C 16% 2.0 mph NE3.2 kmh NE 7.0 mph11.3 kmh 30.11 in1019.6 mb 0.00 in0.0 mm 0.00 in0.0 mm 0.00 in0.0 mm
12:10 AM 68.2°F20.1°C 21.7°F-5.7°C 17% 2.0 mph NE3.2 kmh NE 5.0 mph8.0 kmh 30.12 in1020.0 mb 0.00 in0.0 mm 0.00 in0.0 mm 0.00 in0.0 mm
12:15 AM 68.1°F20.1°C 21.6°F-5.8°C 17% 2.0 mph NE3.2 kmh NE 5.0 mph8.0 kmh 30.12 in1020.0 mb 0.00 in0.0 mm 0.00 in0.0 mm 0.00 in0.0 mm
12:20 AM 68.1°F20.1°C 21.6°F-5.8°C 17% 2.0 mph NE3.2 kmh NE 5.0 mph8.0 kmh 30.12 in1020.0 mb 0.00 in0.0 mm 0.00 in0.0 mm 0.00 in0.0 mm
12:25 AM 68.1°F20.1°C 21.6°F-5.8°C 17% 2.0 mph NE3.2 kmh NE 5.0 mph8.0 kmh 30.11 in1019.6 mb 0.00 in0.0 mm 0.00 in0.0 mm 0.00 in0.0 mm
12:30 AM 68.0°F20.0°C 20.1°F-6.6°C 16% 2.0 mph NE3.2 kmh NE 5.0 mph8.0 kmh 30.11 in1019.6 mb 0.00 in0.0 mm 0.00 in0.0 mm 0.00 in0.0 mm
12:35 AM 68.0°F20.0°C 21.5°F-5.8°C 17% 3.0 mph NE4.8 kmh NE 7.0 mph11.3 kmh 30.11 in1019.6 mb 0.00 in0.0 mm 0.00 in0.0 mm 0.00 in0.0 mm
12:40 AM 67.9°F19.9°C 21.4°F-5.9°C 17% 3.0 mph ENE4.8 kmh ENE 7.0 mph11.3 kmh 30.11 in1019.6 mb 0.00 in0.0 mm 0.00 in0.0 mm 0.00 in0.0 mm
12:45 AM 67.9°F19.9°C 22.8°F-5.1°C 18% 2.0 mph ENE3.2 kmh ENE 5.0 mph8.0 kmh 30.11 in1019.6 mb 0.00 in0.0 mm 0.00 in0.0 mm 0.00 in0.0 mm
12:50 AM 67.9°F19.9°C 24.1°F-4.4°C 19% 2.0 mph NE3.2 kmh NE 5.0 mph8.0 kmh 30.11 in1019.6 mb 0.00 in0.0 mm 0.00 in0.0 mm 0.00 in0.0 mm
12:55 AM 67.8°F19.9°C 25.2°F-3.8°C 20% 3.0 mph ENE4.8 kmh ENE 5.0 mph8.0 kmh 30.11 in1019.6 mb 0.00 in0.0 mm 0.00 in0.0 mm 0.00 in0.0 mm
01:00 AM 67.8°F19.9°C 25.2°F-3.8°C 20% 2.0 mph ENE3.2 kmh ENE 5.0 mph8.0 kmh 30.10 in1019.3 mb 0.00 in0.0 mm 0.00 in0.0 mm 0.00 in0.0 mm
01:05 AM 67.8°F19.9°C 25.2°F-3.8°C 20% 2.0 mph ENE3.2 kmh ENE 5.0 mph8.0 kmh 30.10 in1019.3 mb 0.00 in0.0 mm 0.00 in0.0 mm 0.00 in0.0 mm
01:10 AM 67.7°F19.8°C 25.1°F-3.8°C 20% 2.0 mph E3.2 kmh E 5.0 mph8.0 kmh 30.10 in1019.3 mb 0.00 in0.0 mm 0.00 in0.0 mm 0.00 in0.0 mm
01:15 AM 67.6°F19.8°C 25.1°F-3.8°C 20% 2.0 mph E3.2 kmh E 3.0 mph4.8 kmh 30.10 in1019.3 mb 0.00 in0.0 mm 0.00 in0.0 mm 0.00 in0.0 mm
01:20 AM 67.5°F19.7°C 23.7°F-4.6°C 19% 1.0 mph ENE1.6 kmh ENE 4.0 mph6.4 kmh 30.10 in1019.3 mb 0.00 in0.0 mm 0.00 in0.0 mm 0.00 in0.0 mm
01:25 AM 67.4°F19.7°C 21.0°F-6.1°C 17% 2.0 mph NE3.2 kmh NE 5.0 mph8.0 kmh 30.10 in1019.3 mb 0.00 in0.0 mm 0.00 in0.0 mm 0.00 in0.0 mm
01:30 AM 67.3°F19.6°C 18.0°F-7.8°C 15% 2.0 mph NE3.2 kmh NE 5.0 mph8.0 kmh 30.10 in1019.3 mb 0.00 in0.0 mm 0.00 in0.0 mm 0.00 in0.0 mm
01:35 AM 67.3°F19.6°C 16.4°F-8.7°C 14% 2.0 mph NE3.2 kmh NE 5.0 mph8.0 kmh 30.10 in1019.3 mb 0.00 in0.0 mm 0.00 in0.0 mm 0.00 in0.0 mm
01:40 AM 67.3°F19.6°C 14.7°F-9.6°C 13% 2.0 mph NE3.2 kmh NE 4.0 mph6.4 kmh 30.10 in1019.3 mb 0.00 in0.0 mm 0.00 in0.0 mm 0.00 in0.0 mm
01:45 AM 67.2°F19.6°C 12.8°F-10.7°C 12% 2.0 mph NE3.2 kmh NE 4.0 mph6.4 kmh 30.10 in1019.3 mb 0.00 in0.0 mm 0.00 in0.0 mm 0.00 in0.0 mm
01:50 AM 67.2°F19.6°C 12.8°F-10.7°C 12% 1.0 mph NE1.6 kmh NE 4.0 mph6.4 kmh 30.09 in1019.0 mb 0.00 in0.0 mm 0.00 in0.0 mm 0.00 in0.0 mm
01:55 AM 67.1°F19.5°C 12.7°F-10.7°C 12% 1.0 mph NE1.6 kmh NE 4.0 mph6.4 kmh 30.09 in1019.0 mb 0.00 in0.0 mm 0.00 in0.0 mm 0.00 in0.0 mm
02:00 AM 67.0°F19.4°C 14.5°F-9.7°C 13% 1.0 mph NE1.6 kmh NE 3.0 mph4.8 kmh 30.09 in1019.0 mb 0.00 in0.0 mm 0.00 in0.0 mm 0.00 in0.0 mm
02:05 AM 66.9°F19.4°C 16.1°F-8.8°C 14% 1.0 mph NE1.6 kmh NE 3.0 mph4.8 kmh 30.09 in1019.0 mb 0.00 in0.0 mm 0.00 in0.0 mm 0.00 in0.0 mm
02:10 AM 66.7°F19.3°C 12.4°F-10.9°C 12% 1.0 mph NE1.6 kmh NE 2.0 mph3.2 kmh 30.09 in1019.0 mb 0.00 in0.0 mm 0.00 in0.0 mm 0.00 in0.0 mm
02:15 AM 66.5°F19.2°C 5.8°F-14.6°C 9% 1.0 mph NE1.6 kmh NE 2.0 mph3.2 kmh 30.09 in1019.0 mb 0.00 in0.0 mm 0.00 in0.0 mm 0.00 in0.0 mm
02:20 AM 66.4°F19.1°C 0.3°F-17.6°C 7% 1.0 mph NE1.6 kmh NE 2.0 mph3.2 kmh 30.08 in1018.6 mb 0.00 in0.0 mm 0.00 in0.0 mm 0.00 in0.0 mm
02:25 AM 66.2°F19.0°C -6.9°F-21.6°C 5% 1.0 mph NE1.6 kmh NE 2.0 mph3.2 kmh 30.08 in1018.6 mb 0.00 in0.0 mm 0.00 in0.0 mm 0.00 in0.0 mm
02:30 AM 66.1°F18.9°C -37.6°F-38.7°C 0% 2.0 mph NE3.2 kmh NE 3.0 mph4.8 kmh 30.08 in1018.6 mb 0.00 in0.0 mm 0.00 in0.0 mm 0.00 in0.0 mm
02:35 AM 66.0°F18.9°C -37.6°F-38.7°C 0% 2.0 mph NE3.2 kmh NE 4.0 mph6.4 kmh 30.08 in1018.6 mb 0.00 in0.0 mm 0.00 in0.0 mm 0.00 in0.0 mm
02:40 AM 65.9°F18.8°C -37.6°F-38.7°C 0% 1.0 mph NE1.6 kmh NE 4.0 mph6.4 kmh 30.08 in1018.6 mb 0.00 in0.0 mm 0.00 in0.0 mm 0.00 in0.0 mm
02:45 AM 65.9°F18.8°C -37.6°F-38.7°C 0% 1.0 mph NNE1.6 kmh NNE 4.0 mph6.4 kmh 30.08 in1018.6 mb 0.00 in0.0 mm 0.00 in0.0 mm 0.00 in0.0 mm
02:50 AM 65.8°F18.8°C -37.6°F-38.7°C 0% 1.0 mph NNE1.6 kmh NNE 4.0 mph6.4 kmh 30.08 in1018.6 mb 0.00 in0.0 mm 0.00 in0.0 mm 0.00 in0.0 mm
02:55 AM 65.8°F18.8°C -37.6°F-38.7°C 0% 2.0 mph N3.2 kmh N 5.0 mph8.0 kmh 30.08 in1018.6 mb 0.00 in0.0 mm 0.00 in0.0 mm 0.00 in0.0 mm
03:00 AM 65.8°F18.8°C -37.6°F-38.7°C 0% 3.0 mph N4.8 kmh N 6.0 mph9.7 kmh 30.08 in1018.6 mb 0.00 in0.0 mm 0.00 in0.0 mm 0.00 in0.0 mm
03:05 AM 65.8°F18.8°C -37.6°F-38.7°C 0% 3.0 mph N4.8 kmh N 6.0 mph9.7 kmh 30.08 in1018.6 mb 0.00 in0.0 mm 0.00 in0.0 mm 0.00 in0.0 mm
03:10 AM 65.8°F18.8°C -37.6°F-38.7°C 0% 2.0 mph N3.2 kmh N 5.0 mph8.0 kmh 30.08 in1018.6 mb 0.00 in0.0 mm 0.00 in0.0 mm 0.00 in0.0 mm
03:15 AM 65.7°F18.7°C -37.6°F-38.7°C 0% 2.0 mph NNE3.2 kmh NNE 7.0 mph11.3 kmh 30.08 in1018.6 mb 0.00 in0.0 mm 0.00 in0.0 mm 0.00 in0.0 mm
03:20 AM 65.6°F18.7°C -37.6°F-38.7°C 0% 3.0 mph N4.8 kmh N 7.0 mph11.3 kmh 30.08 in1018.6 mb 0.00 in0.0 mm 0.00 in0.0 mm 0.00 in0.0 mm
03:25 AM 65.6°F18.7°C -37.6°F-38.7°C 0% 2.0 mph N3.2 kmh N 7.0 mph11.3 kmh 30.08 in1018.6 mb 0.00 in0.0 mm 0.00 in0.0 mm 0.00 in0.0 mm
03:30 AM 65.5°F18.6°C -37.6°F-38.7°C 0% 2.0 mph NNE3.2 kmh NNE 6.0 mph9.7 kmh 30.08 in1018.6 mb 0.00 in0.0 mm 0.00 in0.0 mm 0.00 in0.0 mm
03:35 AM 65.4°F18.6°C -37.6°F-38.7°C 0% 2.0 mph NNE3.2 kmh NNE 4.0 mph6.4 kmh 30.08 in1018.6 mb 0.00 in0.0 mm 0.00 in0.0 mm 0.00 in0.0 mm
03:40 AM 65.4°F18.6°C -37.6°F-38.7°C 0% 2.0 mph NNE3.2 kmh NNE 3.0 mph4.8 kmh 30.08 in1018.6 mb 0.00 in0.0 mm 0.00 in0.0 mm 0.00 in0.0 mm
03:45 AM 65.3°F18.5°C -37.6°F-38.7°C 0% 2.0 mph NNE3.2 kmh NNE 5.0 mph8.0 kmh 30.08 in1018.6 mb 0.00 in0.0 mm 0.00 in0.0 mm 0.00 in0.0 mm
03:50 AM 65.2°F18.4°C -37.6°F-38.7°C 0% 2.0 mph N3.2 kmh N 5.0 mph8.0 kmh 30.08 in1018.6 mb 0.00 in0.0 mm 0.00 in0.0 mm 0.00 in0.0 mm
03:55 AM 65.0°F18.3°C -37.6°F-38.7°C 0% 2.0 mph N3.2 kmh N 5.0 mph8.0 kmh 30.08 in1018.6 mb 0.00 in0.0 mm 0.00 in0.0 mm 0.00 in0.0 mm
04:00 AM 64.9°F18.3°C -37.6°F-38.7°C 0% 2.0 mph N3.2 kmh N 4.0 mph6.4 kmh 30.08 in1018.6 mb 0.00 in0.0 mm 0.00 in0.0 mm 0.00 in0.0 mm
04:05 AM 64.8°F18.2°C -37.6°F-38.7°C 0% 2.0 mph N3.2 kmh N 4.0 mph6.4 kmh 30.08 in1018.6 mb 0.00 in0.0 mm 0.00 in0.0 mm 0.00 in0.0 mm
04:10 AM 64.6°F18.1°C -37.6°F-38.7°C 0% 2.0 mph N3.2 kmh N 5.0 mph8.0 kmh 30.08 in1018.6 mb 0.00 in0.0 mm 0.00 in0.0 mm 0.00 in0.0 mm
04:15 AM 64.5°F18.1°C -37.6°F-38.7°C 0% 2.0 mph NNE3.2 kmh NNE 5.0 mph8.0 kmh 30.08 in1018.6 mb 0.00 in0.0 mm 0.00 in0.0 mm 0.00 in0.0 mm
04:20 AM 64.3°F17.9°C -37.6°F-38.7°C 0% 2.0 mph NNE3.2 kmh NNE 4.0 mph6.4 kmh 30.08 in1018.6 mb 0.00 in0.0 mm 0.00 in0.0 mm 0.00 in0.0 mm
04:25 AM 64.2°F17.9°C -37.6°F-38.7°C 0% 2.0 mph NNE3.2 kmh NNE 4.0 mph6.4 kmh 30.08 in1018.6 mb 0.00 in0.0 mm 0.00 in0.0 mm 0.00 in0.0 mm
04:30 AM 64.0°F17.8°C -37.6°F-38.7°C 0% 2.0 mph NNE3.2 kmh NNE 4.0 mph6.4 kmh 30.09 in1019.0 mb 0.00 in0.0 mm 0.00 in0.0 mm 0.00 in0.0 mm
04:35 AM 64.0°F17.8°C -37.6°F-38.7°C 0% 2.0 mph N3.2 kmh N 6.0 mph9.7 kmh 30.09 in1019.0 mb 0.00 in0.0 mm 0.00 in0.0 mm 0.00 in0.0 mm
04:40 AM 63.9°F17.7°C -37.6°F-38.7°C 0% 3.0 mph N4.8 kmh N 6.0 mph9.7 kmh 30.09 in1019.0 mb 0.00 in0.0 mm 0.00 in0.0 mm 0.00 in0.0 mm
04:45 AM 63.9°F17.7°C -37.6°F-38.7°C 0% 2.0 mph N3.2 kmh N 5.0 mph8.0 kmh 30.09 in1019.0 mb 0.00 in0.0 mm 0.00 in0.0 mm 0.00 in0.0 mm
04:50 AM 63.8°F17.7°C -37.6°F-38.7°C 0% 3.0 mph N4.8 kmh N 6.0 mph9.7 kmh 30.09 in1019.0 mb 0.00 in0.0 mm 0.00 in0.0 mm 0.00 in0.0 mm
04:55 AM 63.8°F17.7°C -37.6°F-38.7°C 0% 2.0 mph N3.2 kmh N 6.0 mph9.7 kmh 30.09 in1019.0 mb 0.00 in0.0 mm 0.00 in0.0 mm 0.00 in0.0 mm
05:00 AM 63.7°F17.6°C -37.6°F-38.7°C 0% 2.0 mph NNE3.2 kmh NNE 5.0 mph8.0 kmh 30.09 in1019.0 mb 0.00 in0.0 mm 0.00 in0.0 mm 0.00 in0.0 mm
05:05 AM 63.7°F17.6°C -37.6°F-38.7°C 0% 2.0 mph NNE3.2 kmh NNE 5.0 mph8.0 kmh 30.09 in1019.0 mb 0.00 in0.0 mm 0.00 in0.0 mm 0.00 in0.0 mm
05:10 AM 63.6°F17.6°C -37.6°F-38.7°C 0% 2.0 mph NNE3.2 kmh NNE 4.0 mph6.4 kmh 30.09 in1019.0 mb 0.00 in0.0 mm 0.00 in0.0 mm 0.00 in0.0 mm
05:15 AM 63.5°F17.5°C -37.6°F-38.7°C 0% 2.0 mph NNE3.2 kmh NNE 4.0 mph6.4 kmh 30.09 in1019.0 mb 0.00 in0.0 mm 0.00 in0.0 mm 0.00 in0.0 mm
05:20 AM 63.4°F17.4°C -37.6°F-38.7°C 0% 2.0 mph NNE3.2 kmh NNE 4.0 mph6.4 kmh 30.09 in1019.0 mb 0.00 in0.0 mm 0.00 in0.0 mm 0.00 in0.0 mm
05:25 AM 63.4°F17.4°C -37.6°F-38.7°C 0% 2.0 mph N3.2 kmh N 4.0 mph6.4 kmh 30.09 in1019.0 mb 0.00 in0.0 mm 0.00 in0.0 mm 0.00 in0.0 mm
05:30 AM 63.3°F17.4°C -37.6°F-38.7°C 0% 1.0 mph N1.6 kmh N 4.0 mph6.4 kmh 30.10 in1019.3 mb 0.00 in0.0 mm 0.00 in0.0 mm 0.00 in0.0 mm
05:35 AM 63.2°F17.3°C -37.6°F-38.7°C 0% 1.0 mph N1.6 kmh N 3.0 mph4.8 kmh 30.10 in1019.3 mb 0.00 in0.0 mm 0.00 in0.0 mm 0.00 in0.0 mm
05:40 AM 63.2°F17.3°C -37.6°F-38.7°C 0% 2.0 mph N3.2 kmh N 5.0 mph8.0 kmh 30.10 in1019.3 mb 0.00 in0.0 mm 0.00 in0.0 mm 0.00 in0.0 mm
05:45 AM 63.2°F17.3°C -37.6°F-38.7°C 0% 2.0 mph N3.2 kmh N 5.0 mph8.0 kmh 30.10 in1019.3 mb 0.00 in0.0 mm 0.00 in0.0 mm 0.00 in0.0 mm
05:50 AM 63.1°F17.3°C -37.6°F-38.7°C 0% 2.0 mph N3.2 kmh N 4.0 mph6.4 kmh 30.10 in1019.3 mb 0.00 in0.0 mm 0.00 in0.0 mm 0.00 in0.0 mm
05:55 AM 63.1°F17.3°C -37.6°F-38.7°C 0% 2.0 mph N3.2 kmh N 5.0 mph8.0 kmh 30.10 in1019.3 mb 0.00 in0.0 mm 0.00 in0.0 mm 0.00 in0.0 mm
06:00 AM 63.0°F17.2°C -37.6°F-38.7°C 0% 2.0 mph N3.2 kmh N 5.0 mph8.0 kmh 30.10 in1019.3 mb 0.00 in0.0 mm 0.00 in0.0 mm 0.00 in0.0 mm
06:05 AM 63.0°F17.2°C -37.6°F-38.7°C 0% 2.0 mph N3.2 kmh N 4.0 mph6.4 kmh 30.10 in1019.3 mb 0.00 in0.0 mm 0.00 in0.0 mm 0.00 in0.0 mm
06:10 AM 62.9°F17.2°C -37.6°F-38.7°C 0% 2.0 mph N3.2 kmh N 4.0 mph6.4 kmh 30.11 in1019.6 mb 0.00 in0.0 mm 0.00 in0.0 mm 0.00 in0.0 mm
06:15 AM 62.8°F17.1°C -37.6°F-38.7°C 0% 2.0 mph N3.2 kmh N 3.0 mph4.8 kmh 30.11 in1019.6 mb 0.00 in0.0 mm 0.00 in0.0 mm 0.00 in0.0 mm
06:20 AM 62.8°F17.1°C -37.6°F-38.7°C 0% 1.0 mph N1.6 kmh N 3.0 mph4.8 kmh 30.11 in1019.6 mb 0.00 in0.0 mm 0.00 in0.0 mm 0.00 in0.0 mm
06:25 AM 62.7°F17.1°C -37.6°F-38.7°C 0% 1.0 mph N1.6 kmh N 2.0 mph3.2 kmh 30.11 in1019.6 mb 0.00 in0.0 mm 0.00 in0.0 mm 0.00 in0.0 mm
06:30 AM 62.6°F17.0°C -37.6°F-38.7°C 0% 1.0 mph N1.6 kmh N 3.0 mph4.8 kmh 30.11 in1019.6 mb 0.00 in0.0 mm 0.00 in0.0 mm 0.00 in0.0 mm
06:35 AM 62.6°F17.0°C -37.6°F-38.7°C 0% 1.0 mph N1.6 kmh N 3.0 mph4.8 kmh 30.11 in1019.6 mb 0.00 in0.0 mm 0.00 in0.0 mm 0.00 in0.0 mm
06:40 AM 62.5°F16.9°C -37.6°F-38.7°C 0% 1.0 mph N1.6 kmh N 3.0 mph4.8 kmh 30.11 in1019.6 mb 0.00 in0.0 mm 0.00 in0.0 mm 0.00 in0.0 mm
06:45 AM 62.5°F16.9°C -37.6°F-38.7°C 0% Calm Calm 2.0 mph3.2 kmh 30.11 in1019.6 mb 0.00 in0.0 mm 0.00 in0.0 mm 0.00 in0.0 mm
06:50 AM 62.5°F16.9°C -37.6°F-38.7°C 0% Calm Calm 2.0 mph3.2 kmh 30.11 in1019.6 mb 0.00 in0.0 mm 0.00 in0.0 mm 0.00 in0.0 mm
06:55 AM 62.6°F17.0°C -37.6°F-38.7°C 0% 1.0 mph N1.6 kmh N 2.0 mph3.2 kmh 30.11 in1019.6 mb 0.00 in0.0 mm 0.00 in0.0 mm 0.00 in0.0 mm
07:00 AM 62.7°F17.1°C -37.6°F-38.7°C 0% 1.0 mph N1.6 kmh N 4.0 mph6.4 kmh 30.11 in1019.6 mb 0.00 in0.0 mm 0.00 in0.0 mm 0.00 in0.0 mm
07:05 AM 62.9°F17.2°C -37.6°F-38.7°C 0% 1.0 mph N1.6 kmh N 4.0 mph6.4 kmh 30.11 in1019.6 mb 0.00 in0.0 mm 0.00 in0.0 mm 0.00 in0.0 mm
07:10 AM 63.0°F17.2°C -37.6°F-38.7°C 0% 1.0 mph N1.6 kmh N 4.0 mph6.4 kmh 30.11 in1019.6 mb 0.00 in0.0 mm 0.00 in0.0 mm 0.00 in0.0 mm
07:15 AM 63.2°F17.3°C -37.6°F-38.7°C 0% 2.0 mph NNE3.2 kmh NNE 4.0 mph6.4 kmh 30.11 in1019.6 mb 0.00 in0.0 mm 0.00 in0.0 mm 0.00 in0.0 mm
07:20 AM 63.3°F17.4°C -37.6°F-38.7°C 0% 2.0 mph NNE3.2 kmh NNE 4.0 mph6.4 kmh 30.12 in1020.0 mb 0.00 in0.0 mm 0.00 in0.0 mm 0.00 in0.0 mm
07:25 AM 63.5°F17.5°C -37.6°F-38.7°C 0% 2.0 mph NNE3.2 kmh NNE 4.0 mph6.4 kmh 30.11 in1019.6 mb 0.00 in0.0 mm 0.00 in0.0 mm 0.00 in0.0 mm
07:30 AM 63.6°F17.6°C -37.6°F-38.7°C 0% 2.0 mph NE3.2 kmh NE 4.0 mph6.4 kmh 30.12 in1020.0 mb 0.00 in0.0 mm 0.00 in0.0 mm 0.00 in0.0 mm
07:35 AM 63.8°F17.7°C -37.6°F-38.7°C 0% 2.0 mph NE3.2 kmh NE 4.0 mph6.4 kmh 30.12 in1020.0 mb 0.00 in0.0 mm 0.00 in0.0 mm 0.00 in0.0 mm
07:40 AM 64.0°F17.8°C -37.6°F-38.7°C 0% 1.0 mph NE1.6 kmh NE 4.0 mph6.4 kmh 30.12 in1020.0 mb 0.00 in0.0 mm 0.00 in0.0 mm 0.00 in0.0 mm
07:45 AM 64.1°F17.8°C -37.6°F-38.7°C 0% 1.0 mph NE1.6 kmh NE 3.0 mph4.8 kmh 30.12 in1020.0 mb 0.00 in0.0 mm 0.00 in0.0 mm 0.00 in0.0 mm
07:50 AM 64.4°F18.0°C -37.6°F-38.7°C 0% 1.0 mph NE1.6 kmh NE 2.0 mph3.2 kmh 30.13 in1020.3 mb 0.00 in0.0 mm 0.00 in0.0 mm 0.00 in0.0 mm
07:55 AM 64.6°F18.1°C -37.6°F-38.7°C 0% 1.0 mph NE1.6 kmh NE 3.0 mph4.8 kmh 30.13 in1020.3 mb 0.00 in0.0 mm 0.00 in0.0 mm 0.00 in0.0 mm
08:00 AM 65.0°F18.3°C -37.6°F-38.7°C 0% 1.0 mph NE1.6 kmh NE 3.0 mph4.8 kmh 30.13 in1020.3 mb 0.00 in0.0 mm 0.00 in0.0 mm 0.00 in0.0 mm
08:05 AM 65.4°F18.6°C -37.6°F-38.7°C 0% 2.0 mph NNE3.2 kmh NNE 3.0 mph4.8 kmh 30.13 in1020.3 mb 0.00 in0.0 mm 0.00 in0.0 mm 0.00 in0.0 mm
08:10 AM 65.8°F18.8°C -37.6°F-38.7°C 0% 2.0 mph NNE3.2 kmh NNE 4.0 mph6.4 kmh 30.14 in1020.7 mb 0.00 in0.0 mm 0.00 in0.0 mm 0.00 in0.0 mm
08:15 AM 66.6°F19.2°C -37.6°F-38.7°C 0% 2.0 mph NNE3.2 kmh NNE 5.0 mph8.0 kmh 30.14 in1020.7 mb 0.00 in0.0 mm 0.00 in0.0 mm 0.00 in0.0 mm
08:20 AM 67.5°F19.7°C -37.6°F-38.7°C 0% 3.0 mph NNE4.8 kmh NNE 6.0 mph9.7 kmh 30.14 in1020.7 mb 0.00 in0.0 mm 0.00 in0.0 mm 0.00 in0.0 mm
08:25 AM 68.3°F20.2°C -37.6°F-38.7°C 0% 2.0 mph NNE3.2 kmh NNE 6.0 mph9.7 kmh 30.14 in1020.7 mb 0.00 in0.0 mm 0.00 in0.0 mm 0.00 in0.0 mm
08:30 AM 68.9°F20.5°C -37.6°F-38.7°C 0% 2.0 mph NNE3.2 kmh NNE 5.0 mph8.0 kmh 30.14 in1020.7 mb 0.00 in0.0 mm 0.00 in0.0 mm 0.00 in0.0 mm
08:35 AM 69.5°F20.8°C -37.6°F-38.7°C 0% 2.0 mph NE3.2 kmh NE 5.0 mph8.0 kmh 30.14 in1020.7 mb 0.00 in0.0 mm 0.00 in0.0 mm 0.00 in0.0 mm
08:40 AM 70.2°F21.2°C -22.3°F-30.2°C 2% 2.0 mph NNE3.2 kmh NNE 4.0 mph6.4 kmh 30.14 in1020.7 mb 0.00 in0.0 mm 0.00 in0.0 mm 0.00 in0.0 mm
08:45 AM 71.0°F21.7°C 9.3°F-12.6°C 9% 2.0 mph NE3.2 kmh NE 4.0 mph6.4 kmh 30.14 in1020.7 mb 0.00 in0.0 mm 0.00 in0.0 mm 0.00 in0.0 mm
08:50 AM 72.0°F22.2°C 29.9°F-1.2°C 21% 2.0 mph ENE3.2 kmh ENE 5.0 mph8.0 kmh 30.13 in1020.3 mb 0.00 in0.0 mm 0.00 in0.0 mm 0.00 in0.0 mm
08:55 AM 72.8°F22.7°C 38.7°F3.7°C 29% 3.0 mph ENE4.8 kmh ENE 5.0 mph8.0 kmh 30.13 in1020.3 mb 0.00 in0.0 mm 0.00 in0.0 mm 0.00 in0.0 mm
09:00 AM 73.7°F23.2°C 42.8°F6.0°C 33% 3.0 mph ENE4.8 kmh ENE 5.0 mph8.0 kmh 30.13 in1020.3 mb 0.00 in0.0 mm 0.00 in0.0 mm 0.00 in0.0 mm
09:05 AM 74.3°F23.5°C 47.7°F8.7°C 39% 2.0 mph ENE3.2 kmh ENE 5.0 mph8.0 kmh 30.13 in1020.3 mb 0.00 in0.0 mm 0.00 in0.0 mm 0.00 in0.0 mm
09:10 AM 74.8°F23.8°C 51.4°F10.8°C 44% 3.0 mph ENE4.8 kmh ENE 8.0 mph12.9 kmh 30.13 in1020.3 mb 0.00 in0.0 mm 0.00 in0.0 mm 0.00 in0.0 mm
09:15 AM 75.3°F24.1°C 54.3°F12.4°C 48% 3.0 mph E4.8 kmh E 8.0 mph12.9 kmh 30.13 in1020.3 mb 0.00 in0.0 mm 0.00 in0.0 mm 0.00 in0.0 mm
09:20 AM 76.0°F24.4°C 58.2°F14.6°C 54% 3.0 mph ESE4.8 kmh ESE 7.0 mph11.3 kmh 30.13 in1020.3 mb 0.00 in0.0 mm 0.00 in0.0 mm 0.00 in0.0 mm
09:25 AM 76.6°F24.8°C 58.7°F14.8°C 54% 4.0 mph SE6.4 kmh SE 8.0 mph12.9 kmh 30.13 in1020.3 mb 0.00 in0.0 mm 0.00 in0.0 mm 0.00 in0.0 mm
09:30 AM 77.0°F25.0°C 59.6°F15.3°C 55% 3.0 mph E4.8 kmh E 8.0 mph12.9 kmh 30.13 in1020.3 mb 0.00 in0.0 mm 0.00 in0.0 mm 0.00 in0.0 mm
09:35 AM 77.6°F25.3°C 61.7°F16.5°C 58% 3.0 mph ESE4.8 kmh ESE 5.0 mph8.0 kmh 30.13 in1020.3 mb 0.00 in0.0 mm 0.00 in0.0 mm 0.00 in0.0 mm
09:40 AM 77.8°F25.4°C 62.8°F17.1°C 60% 4.0 mph ESE6.4 kmh ESE 6.0 mph9.7 kmh 30.13 in1020.3 mb 0.00 in0.0 mm 0.00 in0.0 mm 0.00 in0.0 mm
09:45 AM 78.1°F25.6°C 63.1°F17.3°C 60% 3.0 mph E4.8 kmh E 6.0 mph9.7 kmh 30.13 in1020.3 mb 0.00 in0.0 mm 0.00 in0.0 mm 0.00 in0.0 mm
09:50 AM 78.4°F25.8°C 63.8°F17.7°C 61% 3.0 mph E4.8 kmh E 6.0 mph9.7 kmh 30.13 in1020.3 mb 0.00 in0.0 mm 0.00 in0.0 mm 0.00 in0.0 mm
09:55 AM 78.8°F26.0°C 65.1°F18.4°C 63% 3.0 mph E4.8 kmh E 7.0 mph11.3 kmh 30.13 in1020.3 mb 0.00 in0.0 mm 0.00 in0.0 mm 0.00 in0.0 mm
10:00 AM 79.3°F26.3°C 65.6°F18.7°C 63% 2.0 mph ESE3.2 kmh ESE 7.0 mph11.3 kmh 30.13 in1020.3 mb 0.00 in0.0 mm 0.00 in0.0 mm 0.00 in0.0 mm
10:05 AM 79.8°F26.6°C 67.0°F19.4°C 65% 2.0 mph SE3.2 kmh SE 6.0 mph9.7 kmh 30.13 in1020.3 mb 0.00 in0.0 mm 0.00 in0.0 mm 0.00 in0.0 mm
10:10 AM 80.2°F26.8°C 67.4°F19.7°C 65% 3.0 mph SE4.8 kmh SE 7.0 mph11.3 kmh 30.13 in1020.3 mb 0.00 in0.0 mm 0.00 in0.0 mm 0.00 in0.0 mm
10:15 AM 80.7°F27.1°C 67.8°F19.9°C 65% 3.0 mph ESE4.8 kmh ESE 7.0 mph11.3 kmh 30.12 in1020.0 mb 0.00 in0.0 mm 0.00 in0.0 mm 0.00 in0.0 mm
10:20 AM 81.0°F27.2°C 68.1°F20.1°C 65% 3.0 mph SE4.8 kmh SE 7.0 mph11.3 kmh 30.12 in1020.0 mb 0.00 in0.0 mm 0.00 in0.0 mm 0.00 in0.0 mm
10:25 AM 81.2°F27.3°C 68.3°F20.2°C 65% 4.0 mph SE6.4 kmh SE 8.0 mph12.9 kmh 30.12 in1020.0 mb 0.00 in0.0 mm 0.00 in0.0 mm 0.00 in0.0 mm
10:30 AM 81.4°F27.4°C 68.5°F20.3°C 65% 3.0 mph SE4.8 kmh SE 8.0 mph12.9 kmh 30.12 in1020.0 mb 0.00 in0.0 mm 0.00 in0.0 mm 0.00 in0.0 mm
10:35 AM 81.5°F27.5°C 68.6°F20.3°C 65% 3.0 mph SE4.8 kmh SE 10.0 mph16.1 kmh 30.12 in1020.0 mb 0.00 in0.0 mm 0.00 in0.0 mm 0.00 in0.0 mm
10:40 AM 81.6°F27.6°C 68.7°F20.4°C 65% 3.0 mph SE4.8 kmh SE 11.0 mph17.7 kmh 30.11 in1019.6 mb 0.00 in0.0 mm 0.00 in0.0 mm 0.00 in0.0 mm
10:45 AM 81.5°F27.5°C 68.1°F20.1°C 64% 3.0 mph SE4.8 kmh SE 11.0 mph17.7 kmh 30.11 in1019.6 mb 0.00 in0.0 mm 0.00 in0.0 mm 0.00 in0.0 mm
10:50 AM 81.6°F27.6°C 68.7°F20.4°C 65% 3.0 mph ESE4.8 kmh ESE 10.0 mph16.1 kmh 30.11 in1019.6 mb 0.00 in0.0 mm 0.00 in0.0 mm 0.00 in0.0 mm
10:55 AM 82.4°F28.0°C 69.4°F20.8°C 65% 4.0 mph E6.4 kmh E 8.0 mph12.9 kmh 30.11 in1019.6 mb 0.00 in0.0 mm 0.00 in0.0 mm 0.00 in0.0 mm
11:00 AM 83.0°F28.3°C 69.6°F20.9°C 64% 4.0 mph E6.4 kmh E 8.0 mph12.9 kmh 30.11 in1019.6 mb 0.00 in0.0 mm 0.00 in0.0 mm 0.00 in0.0 mm
11:05 AM 83.4°F28.6°C 69.0°F20.6°C 62% 3.0 mph ESE4.8 kmh ESE 7.0 mph11.3 kmh 30.10 in1019.3 mb 0.00 in0.0 mm 0.00 in0.0 mm 0.00 in0.0 mm
11:10 AM 83.7°F28.7°C 69.3°F20.7°C 62% 2.0 mph SE3.2 kmh SE 6.0 mph9.7 kmh 30.10 in1019.3 mb 0.00 in0.0 mm 0.00 in0.0 mm 0.00 in0.0 mm
11:15 AM 84.2°F29.0°C 69.3°F20.7°C 61% 3.0 mph SE4.8 kmh SE 6.0 mph9.7 kmh 30.10 in1019.3 mb 0.00 in0.0 mm 0.00 in0.0 mm 0.00 in0.0 mm
11:20 AM 84.5°F29.2°C 70.0°F21.1°C 62% 4.0 mph SE6.4 kmh SE 8.0 mph12.9 kmh 30.10 in1019.3 mb 0.00 in0.0 mm 0.00 in0.0 mm 0.00 in0.0 mm
11:25 AM 84.6°F29.2°C 69.2°F20.7°C 60% 3.0 mph ESE4.8 kmh ESE 8.0 mph12.9 kmh 30.09 in1019.0 mb 0.00 in0.0 mm 0.00 in0.0 mm 0.00 in0.0 mm
11:30 AM 84.4°F29.1°C 69.5°F20.8°C 61% 3.0 mph E4.8 kmh E 9.0 mph14.5 kmh 30.09 in1019.0 mb 0.00 in0.0 mm 0.00 in0.0 mm 0.00 in0.0 mm
11:35 AM 84.8°F29.3°C 70.3°F21.3°C 62% 4.0 mph E6.4 kmh E 10.0 mph16.1 kmh 30.09 in1019.0 mb 0.00 in0.0 mm 0.00 in0.0 mm 0.00 in0.0 mm
11:40 AM 85.3°F29.6°C 70.3°F21.3°C 61% 4.0 mph ESE6.4 kmh ESE 10.0 mph16.1 kmh 30.09 in1019.0 mb 0.00 in0.0 mm 0.00 in0.0 mm 0.00 in0.0 mm
11:45 AM 85.9°F29.9°C 70.4°F21.3°C 60% 4.0 mph E6.4 kmh E 10.0 mph16.1 kmh 30.09 in1019.0 mb 0.00 in0.0 mm 0.00 in0.0 mm 0.00 in0.0 mm
11:50 AM 86.4°F30.2°C 70.9°F21.6°C 60% 4.0 mph E6.4 kmh E 10.0 mph16.1 kmh 30.09 in1019.0 mb 0.00 in0.0 mm 0.00 in0.0 mm 0.00 in0.0 mm
11:55 AM 86.6°F30.3°C 70.6°F21.4°C 59% 4.0 mph ENE6.4 kmh ENE 8.0 mph12.9 kmh 30.08 in1018.6 mb 0.00 in0.0 mm 0.00 in0.0 mm 0.00 in0.0 mm
12:00 PM 86.9°F30.5°C 70.3°F21.3°C 58% 4.0 mph ENE6.4 kmh ENE 8.0 mph12.9 kmh 30.08 in1018.6 mb 0.00 in0.0 mm 0.00 in0.0 mm 0.00 in0.0 mm
12:05 PM 87.2°F30.7°C 70.1°F21.2°C 57% 4.0 mph E6.4 kmh E 8.0 mph12.9 kmh 30.08 in1018.6 mb 0.00 in0.0 mm 0.00 in0.0 mm 0.00 in0.0 mm
12:10 PM 87.6°F30.9°C 70.0°F21.1°C 56% 4.0 mph E6.4 kmh E 11.0 mph17.7 kmh 30.08 in1018.6 mb 0.00 in0.0 mm 0.00 in0.0 mm 0.00 in0.0 mm
12:15 PM 88.0°F31.1°C 69.8°F21.0°C 55% 4.0 mph ESE6.4 kmh ESE 11.0 mph17.7 kmh 30.08 in1018.6 mb 0.00 in0.0 mm 0.00 in0.0 mm 0.00 in0.0 mm
12:20 PM 87.3°F30.7°C 69.2°F20.7°C 55% 4.0 mph SE6.4 kmh SE 8.0 mph12.9 kmh 30.07 in1018.3 mb 0.00 in0.0 mm 0.00 in0.0 mm 0.00 in0.0 mm
12:25 PM 87.2°F30.7°C 69.6°F20.9°C 56% 3.0 mph SE4.8 kmh SE 8.0 mph12.9 kmh 30.07 in1018.3 mb 0.00 in0.0 mm 0.00 in0.0 mm 0.00 in0.0 mm
12:30 PM 87.5°F30.8°C 69.9°F21.1°C 56% 4.0 mph E6.4 kmh E 9.0 mph14.5 kmh 30.07 in1018.3 mb 0.00 in0.0 mm 0.00 in0.0 mm 0.00 in0.0 mm
12:35 PM 87.8°F31.0°C 69.1°F20.6°C 54% 3.0 mph E4.8 kmh E 9.0 mph14.5 kmh 30.07 in1018.3 mb 0.00 in0.0 mm 0.00 in0.0 mm 0.00 in0.0 mm
12:40 PM 87.3°F30.7°C 69.2°F20.7°C 55% 3.0 mph ENE4.8 kmh ENE 7.0 mph11.3 kmh 30.07 in1018.3 mb 0.00 in0.0 mm 0.00 in0.0 mm 0.00 in0.0 mm
12:45 PM 87.2°F30.7°C 69.6°F20.9°C 56% 3.0 mph ENE4.8 kmh ENE 7.0 mph11.3 kmh 30.06 in1017.9 mb 0.00 in0.0 mm 0.00 in0.0 mm 0.00 in0.0 mm
12:50 PM 87.5°F30.8°C 69.9°F21.1°C 56% 3.0 mph NE4.8 kmh NE 8.0 mph12.9 kmh 30.06 in1017.9 mb 0.00 in0.0 mm 0.00 in0.0 mm 0.00 in0.0 mm
12:55 PM 88.1°F31.2°C 69.4°F20.8°C 54% 3.0 mph E4.8 kmh E 10.0 mph16.1 kmh 30.06 in1017.9 mb 0.00 in0.0 mm 0.00 in0.0 mm 0.00 in0.0 mm
01:00 PM 88.5°F31.4°C 69.7°F20.9°C 54% 4.0 mph E6.4 kmh E 10.0 mph16.1 kmh 30.06 in1017.9 mb 0.00 in0.0 mm 0.00 in0.0 mm 0.00 in0.0 mm
01:05 PM 88.5°F31.4°C 68.1°F20.1°C 51% 3.0 mph E4.8 kmh E 10.0 mph16.1 kmh 30.06 in1017.9 mb 0.00 in0.0 mm 0.00 in0.0 mm 0.00 in0.0 mm
01:10 PM 87.7°F30.9°C 67.9°F19.9°C 52% 3.0 mph ENE4.8 kmh ENE 8.0 mph12.9 kmh 30.06 in1017.9 mb 0.00 in0.0 mm 0.00 in0.0 mm 0.00 in0.0 mm
01:15 PM 86.5°F30.3°C 67.3°F19.6°C 53% 3.0 mph ENE4.8 kmh ENE 8.0 mph12.9 kmh 30.05 in1017.6 mb 0.00 in0.0 mm 0.00 in0.0 mm 0.00 in0.0 mm
01:20 PM 85.6°F29.8°C 67.0°F19.4°C 54% 4.0 mph E6.4 kmh E 12.0 mph19.3 kmh 30.05 in1017.6 mb 0.00 in0.0 mm 0.00 in0.0 mm 0.00 in0.0 mm
01:25 PM 85.2°F29.6°C 67.7°F19.8°C 56% 4.0 mph E6.4 kmh E 12.0 mph19.3 kmh 30.05 in1017.6 mb 0.00 in0.0 mm 0.00 in0.0 mm 0.00 in0.0 mm
01:30 PM 86.0°F30.0°C 68.0°F20.0°C 55% 4.0 mph E6.4 kmh E 10.0 mph16.1 kmh 30.05 in1017.6 mb 0.00 in0.0 mm 0.00 in0.0 mm 0.00 in0.0 mm
01:35 PM 86.2°F30.1°C 67.1°F19.5°C 53% 4.0 mph E6.4 kmh E 8.0 mph12.9 kmh 30.05 in1017.6 mb 0.00 in0.0 mm 0.00 in0.0 mm 0.00 in0.0 mm
01:40 PM 85.6°F29.8°C 67.0°F19.4°C 54% 4.0 mph ENE6.4 kmh ENE 8.0 mph12.9 kmh 30.04 in1017.3 mb 0.00 in0.0 mm 0.00 in0.0 mm 0.00 in0.0 mm
01:45 PM 85.9°F29.9°C 66.8°F19.3°C 53% 3.0 mph E4.8 kmh E 9.0 mph14.5 kmh 30.04 in1017.3 mb 0.00 in0.0 mm 0.00 in0.0 mm 0.00 in0.0 mm
01:50 PM 86.7°F30.4°C 69.1°F20.6°C 56% 3.0 mph SE4.8 kmh SE 9.0 mph14.5 kmh 30.04 in1017.3 mb 0.00 in0.0 mm 0.00 in0.0 mm 0.00 in0.0 mm
01:55 PM 87.9°F31.1°C 68.6°F20.3°C 53% 3.0 mph ESE4.8 kmh ESE 9.0 mph14.5 kmh 30.03 in1016.9 mb 0.00 in0.0 mm 0.00 in0.0 mm 0.00 in0.0 mm
02:00 PM 89.0°F31.7°C 67.4°F19.7°C 49% 3.0 mph E4.8 kmh E 9.0 mph14.5 kmh 30.03 in1016.9 mb 0.00 in0.0 mm 0.00 in0.0 mm 0.00 in0.0 mm
02:05 PM 88.9°F31.6°C 66.1°F18.9°C 47% 2.0 mph ENE3.2 kmh ENE 7.0 mph11.3 kmh 30.03 in1016.9 mb 0.00 in0.0 mm 0.00 in0.0 mm 0.00 in0.0 mm
02:10 PM 88.7°F31.5°C 67.7°F19.8°C 50% 2.0 mph NE3.2 kmh NE 7.0 mph11.3 kmh 30.03 in1016.9 mb 0.00 in0.0 mm 0.00 in0.0 mm 0.00 in0.0 mm
02:15 PM 88.8°F31.6°C 67.8°F19.9°C 50% 4.0 mph ENE6.4 kmh ENE 9.0 mph14.5 kmh 30.02 in1016.6 mb 0.00 in0.0 mm 0.00 in0.0 mm 0.00 in0.0 mm
02:20 PM 88.6°F31.4°C 67.0°F19.4°C 49% 4.0 mph E6.4 kmh E 9.0 mph14.5 kmh 30.02 in1016.6 mb 0.00 in0.0 mm 0.00 in0.0 mm 0.00 in0.0 mm
02:25 PM 87.9°F31.1°C 66.4°F19.1°C 49% 3.0 mph E4.8 kmh E 7.0 mph11.3 kmh 30.02 in1016.6 mb 0.00 in0.0 mm 0.00 in0.0 mm 0.00 in0.0 mm
02:30 PM 87.9°F31.1°C 67.5°F19.7°C 51% 3.0 mph ESE4.8 kmh ESE 8.0 mph12.9 kmh 30.02 in1016.6 mb 0.00 in0.0 mm 0.00 in0.0 mm 0.00 in0.0 mm
02:35 PM 88.2°F31.2°C 66.6°F19.2°C 49% 3.0 mph ESE4.8 kmh ESE 8.0 mph12.9 kmh 30.02 in1016.6 mb 0.00 in0.0 mm 0.00 in0.0 mm 0.00 in0.0 mm
02:40 PM 88.6°F31.4°C 67.0°F19.4°C 49% 2.0 mph E3.2 kmh E 5.0 mph8.0 kmh 30.02 in1016.6 mb 0.00 in0.0 mm 0.00 in0.0 mm 0.00 in0.0 mm
02:45 PM 89.2°F31.8°C 66.9°F19.4°C 48% 2.0 mph NE3.2 kmh NE 5.0 mph8.0 kmh 30.01 in1016.3 mb 0.00 in0.0 mm 0.00 in0.0 mm 0.00 in0.0 mm
02:50 PM 90.2°F32.3°C 67.2°F19.6°C 47% 2.0 mph NE3.2 kmh NE 7.0 mph11.3 kmh 30.01 in1016.3 mb 0.00 in0.0 mm 0.00 in0.0 mm 0.00 in0.0 mm
02:55 PM 90.9°F32.7°C 67.3°F19.6°C 46% 2.0 mph ESE3.2 kmh ESE 7.0 mph11.3 kmh 30.00 in1015.9 mb 0.00 in0.0 mm 0.00 in0.0 mm 0.00 in0.0 mm
03:00 PM 91.5°F33.1°C 67.2°F19.6°C 45% 2.0 mph E3.2 kmh E 7.0 mph11.3 kmh 30.00 in1015.9 mb 0.00 in0.0 mm 0.00 in0.0 mm 0.00 in0.0 mm
03:05 PM 91.8°F33.2°C 67.4°F19.7°C 45% 3.0 mph ENE4.8 kmh ENE 7.0 mph11.3 kmh 30.00 in1015.9 mb 0.00 in0.0 mm 0.00 in0.0 mm 0.00 in0.0 mm
03:10 PM 91.1°F32.8°C 66.2°F19.0°C 44% 2.0 mph ENE3.2 kmh ENE 6.0 mph9.7 kmh 30.00 in1015.9 mb 0.00 in0.0 mm 0.00 in0.0 mm 0.00 in0.0 mm
03:15 PM 90.5°F32.5°C 66.3°F19.1°C 45% 2.0 mph E3.2 kmh E 5.0 mph8.0 kmh 30.00 in1015.9 mb 0.00 in0.0 mm 0.00 in0.0 mm 0.00 in0.0 mm
03:20 PM 90.2°F32.3°C 67.9°F19.9°C 48% 2.0 mph E3.2 kmh E 6.0 mph9.7 kmh 30.00 in1015.9 mb 0.00 in0.0 mm 0.00 in0.0 mm 0.00 in0.0 mm
03:25 PM 90.6°F32.6°C 67.0°F19.4°C 46% 2.0 mph E3.2 kmh E 6.0 mph9.7 kmh 29.99 in1015.6 mb 0.00 in0.0 mm 0.00 in0.0 mm 0.00 in0.0 mm
03:30 PM 90.4°F32.4°C 66.8°F19.3°C 46% 2.0 mph E3.2 kmh E 7.0 mph11.3 kmh 29.99 in1015.6 mb 0.00 in0.0 mm 0.00 in0.0 mm 0.00 in0.0 mm
03:35 PM 89.5°F31.9°C 67.2°F19.6°C 48% 3.0 mph E4.8 kmh E 9.0 mph14.5 kmh 29.99 in1015.6 mb 0.00 in0.0 mm 0.00 in0.0 mm 0.00 in0.0 mm
03:40 PM 89.0°F31.7°C 67.9°F19.9°C 50% 3.0 mph E4.8 kmh E 9.0 mph14.5 kmh 29.99 in1015.6 mb 0.00 in0.0 mm 0.00 in0.0 mm 0.00 in0.0 mm
03:45 PM 88.9°F31.6°C 67.3°F19.6°C 49% 3.0 mph E4.8 kmh E 6.0 mph9.7 kmh 29.99 in1015.6 mb 0.00 in0.0 mm 0.00 in0.0 mm 0.00 in0.0 mm
03:50 PM 88.5°F31.4°C 66.9°F19.4°C 49% 3.0 mph ESE4.8 kmh ESE 7.0 mph11.3 kmh 29.99 in1015.6 mb 0.00 in0.0 mm 0.00 in0.0 mm 0.00 in0.0 mm
03:55 PM 87.6°F30.9°C 66.1°F18.9°C 49% 3.0 mph SE4.8 kmh SE 7.0 mph11.3 kmh 29.99 in1015.6 mb 0.00 in0.0 mm 0.00 in0.0 mm 0.00 in0.0 mm
04:00 PM 86.7°F30.4°C 65.8°F18.8°C 50% 3.0 mph SE4.8 kmh SE 7.0 mph11.3 kmh 29.98 in1015.2 mb 0.00 in0.0 mm 0.00 in0.0 mm 0.00 in0.0 mm
04:05 PM 86.2°F30.1°C 65.9°F18.8°C 51% 2.0 mph E3.2 kmh E 7.0 mph11.3 kmh 29.98 in1015.2 mb 0.00 in0.0 mm 0.00 in0.0 mm 0.00 in0.0 mm
04:10 PM 85.8°F29.9°C 65.6°F18.7°C 51% 2.0 mph NE3.2 kmh NE 6.0 mph9.7 kmh 29.98 in1015.2 mb 0.00 in0.0 mm 0.00 in0.0 mm 0.00 in0.0 mm
04:15 PM 85.6°F29.8°C 66.0°F18.9°C 52% 2.0 mph E3.2 kmh E 4.0 mph6.4 kmh 29.98 in1015.2 mb 0.00 in0.0 mm 0.00 in0.0 mm 0.00 in0.0 mm
04:20 PM 85.3°F29.6°C 65.7°F18.7°C 52% 2.0 mph E3.2 kmh E 8.0 mph12.9 kmh 29.98 in1015.2 mb 0.00 in0.0 mm 0.00 in0.0 mm 0.00 in0.0 mm
04:25 PM 85.0°F29.4°C 65.4°F18.6°C 52% 3.0 mph E4.8 kmh E 9.0 mph14.5 kmh 29.98 in1015.2 mb 0.00 in0.0 mm 0.00 in0.0 mm 0.00 in0.0 mm
04:30 PM 85.0°F29.4°C 65.4°F18.6°C 52% 3.0 mph ESE4.8 kmh ESE 9.0 mph14.5 kmh 29.98 in1015.2 mb 0.00 in0.0 mm 0.00 in0.0 mm 0.00 in0.0 mm
04:35 PM 85.5°F29.7°C 65.9°F18.8°C 52% 2.0 mph E3.2 kmh E 6.0 mph9.7 kmh 29.98 in1015.2 mb 0.00 in0.0 mm 0.00 in0.0 mm 0.00 in0.0 mm
04:40 PM 86.2°F30.1°C 65.9°F18.8°C 51% 2.0 mph ENE3.2 kmh ENE 6.0 mph9.7 kmh 29.98 in1015.2 mb 0.00 in0.0 mm 0.00 in0.0 mm 0.00 in0.0 mm
04:45 PM 86.6°F30.3°C 65.2°F18.4°C 49% 2.0 mph ESE3.2 kmh ESE 5.0 mph8.0 kmh 29.98 in1015.2 mb 0.00 in0.0 mm 0.00 in0.0 mm 0.00 in0.0 mm
04:50 PM 86.5°F30.3°C 65.1°F18.4°C 49% 2.0 mph SSE3.2 kmh SSE 4.0 mph6.4 kmh 29.98 in1015.2 mb 0.00 in0.0 mm 0.00 in0.0 mm 0.00 in0.0 mm
04:55 PM 86.4°F30.2°C 65.0°F18.3°C 49% 2.0 mph SSE3.2 kmh SSE 4.0 mph6.4 kmh 29.97 in1014.9 mb 0.00 in0.0 mm 0.00 in0.0 mm 0.00 in0.0 mm
05:00 PM 86.4°F30.2°C 65.6°F18.7°C 50% 2.0 mph SSE3.2 kmh SSE 4.0 mph6.4 kmh 29.97 in1014.9 mb 0.00 in0.0 mm 0.00 in0.0 mm 0.00 in0.0 mm
05:05 PM 86.5°F30.3°C 66.2°F19.0°C 51% 1.0 mph SE1.6 kmh SE 5.0 mph8.0 kmh 29.97 in1014.9 mb 0.00 in0.0 mm 0.00 in0.0 mm 0.00 in0.0 mm
05:10 PM 86.7°F30.4°C 65.8°F18.8°C 50% 2.0 mph E3.2 kmh E 5.0 mph8.0 kmh 29.97 in1014.9 mb 0.00 in0.0 mm 0.00 in0.0 mm 0.00 in0.0 mm
05:15 PM 86.6°F30.3°C 66.3°F19.1°C 51% 2.0 mph ESE3.2 kmh ESE 5.0 mph8.0 kmh 29.97 in1014.9 mb 0.00 in0.0 mm 0.00 in0.0 mm 0.00 in0.0 mm
05:20 PM 86.5°F30.3°C 65.7°F18.7°C 50% 1.0 mph SE1.6 kmh SE 3.0 mph4.8 kmh 29.97 in1014.9 mb 0.00 in0.0 mm 0.00 in0.0 mm 0.00 in0.0 mm
05:25 PM 86.3°F30.2°C 65.5°F18.6°C 50% 1.0 mph ESE1.6 kmh ESE 3.0 mph4.8 kmh 29.98 in1015.2 mb 0.00 in0.0 mm 0.00 in0.0 mm 0.00 in0.0 mm
05:30 PM 85.9°F29.9°C 65.7°F18.7°C 51% 1.0 mph ESE1.6 kmh ESE 3.0 mph4.8 kmh 29.98 in1015.2 mb 0.00 in0.0 mm 0.00 in0.0 mm 0.00 in0.0 mm
05:35 PM 85.5°F29.7°C 65.9°F18.8°C 52% 1.0 mph E1.6 kmh E 3.0 mph4.8 kmh 29.98 in1015.2 mb 0.00 in0.0 mm 0.00 in0.0 mm 0.00 in0.0 mm
05:40 PM 85.1°F29.5°C 65.5°F18.6°C 52% 1.0 mph E1.6 kmh E 6.0 mph9.7 kmh 29.99 in1015.6 mb 0.00 in0.0 mm 0.00 in0.0 mm 0.00 in0.0 mm
05:45 PM 83.6°F28.7°C 68.7°F20.4°C 61% 4.0 mph E6.4 kmh E 19.0 mph30.6 kmh 29.99 in1015.6 mb 0.00 in0.0 mm 0.00 in0.0 mm 0.00 in0.0 mm
05:50 PM 81.8°F27.7°C 68.4°F20.2°C 64% 6.0 mph E9.7 kmh E 19.0 mph30.6 kmh 29.98 in1015.2 mb 0.00 in0.0 mm 0.00 in0.0 mm 0.00 in0.0 mm
05:55 PM 80.1°F26.7°C 68.2°F20.1°C 67% 6.0 mph E9.7 kmh E 16.0 mph25.7 kmh 29.99 in1015.6 mb 0.00 in0.0 mm 0.00 in0.0 mm 0.00 in0.0 mm
06:00 PM 78.8°F26.0°C 66.9°F19.4°C 67% 5.0 mph E8.0 kmh E 15.0 mph24.1 kmh 30.00 in1015.9 mb 0.00 in0.0 mm 0.00 in0.0 mm 0.00 in0.0 mm
06:05 PM 78.0°F25.6°C 65.7°F18.7°C 66% 3.0 mph E4.8 kmh E 9.0 mph14.5 kmh 30.01 in1016.3 mb 0.00 in0.0 mm 0.00 in0.0 mm 0.00 in0.0 mm
06:10 PM 77.3°F25.2°C 64.2°F17.9°C 64% 3.0 mph NE4.8 kmh NE 8.0 mph12.9 kmh 30.01 in1016.3 mb 0.01 in0.3 mm 0.12 in3.0 mm 0.01 in0.3 mm
06:15 PM 76.7°F24.8°C 60.3°F15.7°C 57% 3.0 mph NNE4.8 kmh NNE 8.0 mph12.9 kmh 30.01 in1016.3 mb 0.03 in0.8 mm 0.24 in6.1 mm 0.03 in0.8 mm
06:20 PM 75.9°F24.4°C 54.2°F12.3°C 47% 2.0 mph NW3.2 kmh NW 6.0 mph9.7 kmh 30.01 in1016.3 mb 0.06 in1.5 mm 0.36 in9.1 mm 0.06 in1.5 mm
06:25 PM 75.0°F23.9°C 48.4°F9.1°C 39% 3.0 mph S4.8 kmh S 6.0 mph9.7 kmh 30.02 in1016.6 mb 0.14 in3.6 mm 0.96 in24.4 mm 0.14 in3.6 mm
06:30 PM 74.2°F23.4°C 36.1°F2.3°C 25% 2.0 mph S3.2 kmh S 5.0 mph8.0 kmh 30.02 in1016.6 mb 0.19 in4.8 mm 0.60 in15.2 mm 0.19 in4.8 mm
06:35 PM 73.2°F22.9°C 21.1°F-6.1°C 14% 2.0 mph WSW3.2 kmh WSW 5.0 mph8.0 kmh 30.01 in1016.3 mb 0.25 in6.4 mm 0.72 in18.3 mm 0.25 in6.4 mm
06:40 PM 72.5°F22.5°C -33.7°F-36.5°C 0% 3.0 mph WNW4.8 kmh WNW 5.0 mph8.0 kmh 30.01 in1016.3 mb 0.28 in7.1 mm 0.36 in9.1 mm 0.28 in7.1 mm
06:45 PM 72.0°F22.2°C -33.7°F-36.5°C 0% 3.0 mph NW4.8 kmh NW 5.0 mph8.0 kmh 30.02 in1016.6 mb 0.31 in7.9 mm 0.36 in9.1 mm 0.31 in7.9 mm
06:50 PM 71.7°F22.1°C -33.7°F-36.5°C 0% 2.0 mph NW3.2 kmh NW 5.0 mph8.0 kmh 30.02 in1016.6 mb 0.31 in7.9 mm 0.00 in0.0 mm 0.31 in7.9 mm
06:55 PM 71.6°F22.0°C -33.7°F-36.5°C 0% 1.0 mph NW1.6 kmh NW 4.0 mph6.4 kmh 30.02 in1016.6 mb 0.32 in8.1 mm 0.12 in3.0 mm 0.32 in8.1 mm
07:00 PM 71.4°F21.9°C -33.7°F-36.5°C 0% 1.0 mph NW1.6 kmh NW 6.0 mph9.7 kmh 30.02 in1016.6 mb 0.32 in8.1 mm 0.00 in0.0 mm 0.32 in8.1 mm
07:05 PM 71.2°F21.8°C -33.7°F-36.5°C 0% 2.0 mph NW3.2 kmh NW 6.0 mph9.7 kmh 30.03 in1016.9 mb 0.32 in8.1 mm 0.00 in0.0 mm 0.32 in8.1 mm
07:10 PM 71.0°F21.7°C -33.7°F-36.5°C 0% 2.0 mph NW3.2 kmh NW 5.0 mph8.0 kmh 30.03 in1016.9 mb 0.32 in8.1 mm 0.00 in0.0 mm 0.33 in8.4 mm
07:15 PM 70.9°F21.6°C -33.7°F-36.5°C 0% 2.0 mph NNW3.2 kmh NNW 5.0 mph8.0 kmh 30.03 in1016.9 mb 0.30 in7.6 mm 0.00 in0.0 mm 0.33 in8.4 mm
07:20 PM 70.8°F21.6°C -33.7°F-36.5°C 0% 2.0 mph NNW3.2 kmh NNW 5.0 mph8.0 kmh 30.03 in1016.9 mb 0.28 in7.1 mm 0.00 in0.0 mm 0.34 in8.6 mm
07:25 PM 70.6°F21.4°C -33.7°F-36.5°C 0% 2.0 mph NNW3.2 kmh NNW 4.0 mph6.4 kmh 30.04 in1017.3 mb 0.21 in5.3 mm 0.00 in0.0 mm 0.35 in8.9 mm
07:30 PM 70.4°F21.3°C -33.7°F-36.5°C 0% 2.0 mph NNW3.2 kmh NNW 6.0 mph9.7 kmh 30.04 in1017.3 mb 0.16 in4.1 mm 0.00 in0.0 mm 0.35 in8.9 mm
07:35 PM 70.3°F21.3°C -33.7°F-36.5°C 0% 2.0 mph N3.2 kmh N 6.0 mph9.7 kmh 30.04 in1017.3 mb 0.10 in2.5 mm 0.00 in0.0 mm 0.36 in9.1 mm
07:40 PM 70.2°F21.2°C -33.7°F-36.5°C 0% 2.0 mph N3.2 kmh N 5.0 mph8.0 kmh 30.04 in1017.3 mb 0.08 in2.0 mm 0.00 in0.0 mm 0.37 in9.4 mm
07:45 PM 70.1°F21.2°C -33.7°F-36.5°C 0% 2.0 mph N3.2 kmh N 5.0 mph8.0 kmh 30.04 in1017.3 mb 0.07 in1.8 mm 0.00 in0.0 mm 0.38 in9.7 mm
07:50 PM 70.0°F21.1°C -33.7°F-36.5°C 0% 2.0 mph N3.2 kmh N 4.0 mph6.4 kmh 30.04 in1017.3 mb 0.07 in1.8 mm 0.00 in0.0 mm 0.38 in9.7 mm
07:55 PM 70.0°F21.1°C -33.7°F-36.5°C 0% 2.0 mph NNE3.2 kmh NNE 4.0 mph6.4 kmh 30.05 in1017.6 mb 0.07 in1.8 mm 0.00 in0.0 mm 0.39 in9.9 mm
08:00 PM 69.9°F21.1°C -33.7°F-36.5°C 0% 2.0 mph NNE3.2 kmh NNE 4.0 mph6.4 kmh 30.05 in1017.6 mb 0.07 in1.8 mm 0.00 in0.0 mm 0.39 in9.9 mm
08:05 PM 69.8°F21.0°C -33.7°F-36.5°C 0% 2.0 mph N3.2 kmh N 4.0 mph6.4 kmh 30.05 in1017.6 mb 0.07 in1.8 mm 0.00 in0.0 mm 0.39 in9.9 mm
08:10 PM 69.7°F20.9°C -33.7°F-36.5°C 0% 2.0 mph N3.2 kmh N 4.0 mph6.4 kmh 30.05 in1017.6 mb 0.07 in1.8 mm 0.00 in0.0 mm 0.40 in10.2 mm
08:15 PM 69.6°F20.9°C -33.7°F-36.5°C 0% 2.0 mph N3.2 kmh N 5.0 mph8.0 kmh 30.06 in1017.9 mb 0.12 in3.0 mm 0.60 in15.2 mm 0.45 in11.4 mm
08:20 PM 69.3°F20.7°C -33.7°F-36.5°C 0% 3.0 mph N4.8 kmh N 5.0 mph8.0 kmh 30.05 in1017.6 mb 0.15 in3.8 mm 0.36 in9.1 mm 0.49 in12.4 mm
08:25 PM 69.1°F20.6°C -33.7°F-36.5°C 0% 3.0 mph N4.8 kmh N 6.0 mph9.7 kmh 30.06 in1017.9 mb 0.16 in4.1 mm 0.12 in3.0 mm 0.51 in13.0 mm
08:30 PM 69.0°F20.6°C -33.7°F-36.5°C 0% 3.0 mph NNE4.8 kmh NNE 6.0 mph9.7 kmh 30.06 in1017.9 mb 0.17 in4.3 mm 0.12 in3.0 mm 0.52 in13.2 mm
08:35 PM 68.8°F20.4°C -33.7°F-36.5°C 0% 3.0 mph NNE4.8 kmh NNE 5.0 mph8.0 kmh 30.06 in1017.9 mb 0.16 in4.1 mm 0.00 in0.0 mm 0.52 in13.2 mm
08:40 PM 68.7°F20.4°C -33.7°F-36.5°C 0% 3.0 mph N4.8 kmh N 7.0 mph11.3 kmh 30.06 in1017.9 mb 0.15 in3.8 mm 0.00 in0.0 mm 0.52 in13.2 mm
08:45 PM 68.7°F20.4°C -33.7°F-36.5°C 0% 3.0 mph N4.8 kmh N 7.0 mph11.3 kmh 30.06 in1017.9 mb 0.15 in3.8 mm 0.00 in0.0 mm 0.53 in13.5 mm
08:50 PM 68.7°F20.4°C -33.7°F-36.5°C 0% 2.0 mph N3.2 kmh N 6.0 mph9.7 kmh 30.06 in1017.9 mb 0.15 in3.8 mm 0.00 in0.0 mm 0.53 in13.5 mm
08:55 PM 68.7°F20.4°C -33.7°F-36.5°C 0% 3.0 mph N4.8 kmh N 6.0 mph9.7 kmh 30.06 in1017.9 mb 0.14 in3.6 mm 0.00 in0.0 mm 0.53 in13.5 mm
09:00 PM 68.8°F20.4°C -33.7°F-36.5°C 0% 3.0 mph N4.8 kmh N 6.0 mph9.7 kmh 30.06 in1017.9 mb 0.14 in3.6 mm 0.00 in0.0 mm 0.53 in13.5 mm
09:05 PM 68.8°F20.4°C -33.7°F-36.5°C 0% 3.0 mph N4.8 kmh N 6.0 mph9.7 kmh 30.06 in1017.9 mb 0.14 in3.6 mm 0.00 in0.0 mm 0.53 in13.5 mm
09:10 PM 68.8°F20.4°C -33.7°F-36.5°C 0% 2.0 mph NNE3.2 kmh NNE 5.0 mph8.0 kmh 30.07 in1018.3 mb 0.12 in3.0 mm 0.00 in0.0 mm 0.53 in13.5 mm
09:15 PM 68.8°F20.4°C -33.7°F-36.5°C 0% 2.0 mph NNE3.2 kmh NNE 5.0 mph8.0 kmh 30.07 in1018.3 mb 0.07 in1.8 mm 0.00 in0.0 mm 0.53 in13.5 mm
09:20 PM 68.6°F20.3°C -33.7°F-36.5°C 0% 2.0 mph NNE3.2 kmh NNE 5.0 mph8.0 kmh 30.07 in1018.3 mb 0.03 in0.8 mm 0.00 in0.0 mm 0.53 in13.5 mm
09:25 PM 68.5°F20.3°C -33.7°F-36.5°C 0% 2.0 mph NE3.2 kmh NE 4.0 mph6.4 kmh 30.07 in1018.3 mb 0.03 in0.8 mm 0.00 in0.0 mm 0.54 in13.7 mm
09:30 PM 68.5°F20.3°C -33.7°F-36.5°C 0% 1.0 mph NE1.6 kmh NE 4.0 mph6.4 kmh 30.07 in1018.3 mb 0.02 in0.5 mm 0.00 in0.0 mm 0.54 in13.7 mm
09:35 PM 68.4°F20.2°C -33.7°F-36.5°C 0% 1.0 mph NE1.6 kmh NE 3.0 mph4.8 kmh 30.07 in1018.3 mb 0.03 in0.8 mm 0.12 in3.0 mm 0.55 in14.0 mm
09:40 PM 68.5°F20.3°C -33.7°F-36.5°C 0% 1.0 mph NE1.6 kmh NE 3.0 mph4.8 kmh 30.07 in1018.3 mb 0.10 in2.5 mm 0.84 in21.3 mm 0.62 in15.7 mm
09:45 PM 68.5°F20.3°C -33.7°F-36.5°C 0% 1.0 mph ENE1.6 kmh ENE 3.0 mph4.8 kmh 30.07 in1018.3 mb 0.13 in3.3 mm 0.36 in9.1 mm 0.66 in16.8 mm
09:50 PM 68.5°F20.3°C -33.7°F-36.5°C 0% 1.0 mph ENE1.6 kmh ENE 3.0 mph4.8 kmh 30.07 in1018.3 mb 0.18 in4.6 mm 0.60 in15.2 mm 0.71 in18.0 mm
09:55 PM 68.5°F20.3°C -33.7°F-36.5°C 0% 1.0 mph NE1.6 kmh NE 2.0 mph3.2 kmh 30.08 in1018.6 mb 0.21 in5.3 mm 0.36 in9.1 mm 0.74 in18.8 mm
10:00 PM 68.6°F20.3°C -33.7°F-36.5°C 0% Calm Calm 2.0 mph3.2 kmh 30.08 in1018.6 mb 0.26 in6.6 mm 0.05 in1.3 mm 0.79 in20.1 mm
10:05 PM 68.6°F20.3°C -33.7°F-36.5°C 0% 1.0 mph E1.6 kmh E 3.0 mph4.8 kmh 30.08 in1018.6 mb 0.34 in8.6 mm 0.96 in24.4 mm 0.87 in22.1 mm
10:10 PM 68.8°F20.4°C -33.7°F-36.5°C 0% 2.0 mph E3.2 kmh E 3.0 mph4.8 kmh 30.08 in1018.6 mb 0.45 in11.4 mm 1.32 in33.5 mm 0.98 in24.9 mm
10:15 PM 68.9°F20.5°C -33.7°F-36.5°C 0% 2.0 mph E3.2 kmh E 3.0 mph4.8 kmh 30.08 in1018.6 mb 0.54 in13.7 mm 1.08 in27.4 mm 1.07 in27.2 mm
10:20 PM 69.0°F20.6°C -33.7°F-36.5°C 0% 1.0 mph E1.6 kmh E 3.0 mph4.8 kmh 30.08 in1018.6 mb 0.62 in15.7 mm 0.96 in24.4 mm 1.15 in29.2 mm
10:25 PM 69.1°F20.6°C -33.7°F-36.5°C 0% 2.0 mph NE3.2 kmh NE 5.0 mph8.0 kmh 30.08 in1018.6 mb 0.75 in19.1 mm 1.56 in39.6 mm 1.29 in32.8 mm
10:30 PM 69.1°F20.6°C -33.7°F-36.5°C 0% 3.0 mph NNE4.8 kmh NNE 7.0 mph11.3 kmh 30.08 in1018.6 mb 0.82 in20.8 mm 0.84 in21.3 mm 1.36 in34.5 mm
10:35 PM 69.1°F20.6°C -33.7°F-36.5°C 0% 2.0 mph NNE3.2 kmh NNE 7.0 mph11.3 kmh 30.08 in1018.6 mb 0.92 in23.4 mm 1.20 in30.5 mm 1.47 in37.3 mm
10:40 PM 69.1°F20.6°C -33.7°F-36.5°C 0% 2.0 mph NNE3.2 kmh NNE 4.0 mph6.4 kmh 30.09 in1019.0 mb 0.95 in24.1 mm 0.36 in9.1 mm 1.57 in39.9 mm
10:45 PM 69.1°F20.6°C -33.7°F-36.5°C 0% 3.0 mph N4.8 kmh N 7.0 mph11.3 kmh 30.08 in1018.6 mb 1.01 in25.7 mm 0.72 in18.3 mm 1.68 in42.7 mm
10:50 PM 69.1°F20.6°C -33.7°F-36.5°C 0% 3.0 mph N4.8 kmh N 7.0 mph11.3 kmh 30.08 in1018.6 mb 1.02 in25.9 mm 0.12 in3.0 mm 1.73 in43.9 mm
10:55 PM 69.0°F20.6°C -33.7°F-36.5°C 0% 3.0 mph NNE4.8 kmh NNE 6.0 mph9.7 kmh 30.08 in1018.6 mb 1.02 in25.9 mm 0.00 in0.0 mm 1.76 in44.7 mm
11:00 PM 69.0°F20.6°C -33.7°F-36.5°C 0% 3.0 mph NE4.8 kmh NE 7.0 mph11.3 kmh 30.07 in1018.3 mb 0.98 in24.9 mm 0.00 in0.0 mm 1.42 in36.1 mm
11:05 PM 68.8°F20.4°C -33.7°F-36.5°C 0% 3.0 mph NE4.8 kmh NE 9.0 mph14.5 kmh 30.07 in1018.3 mb 0.90 in22.9 mm 0.00 in0.0 mm 0.01 in0.3 mm
11:10 PM 68.7°F20.4°C -33.7°F-36.5°C 0% 2.0 mph NE3.2 kmh NE 9.0 mph14.5 kmh 30.07 in1018.3 mb 0.79 in20.1 mm 0.00 in0.0 mm 0.01 in0.3 mm
11:15 PM 68.6°F20.3°C -33.7°F-36.5°C 0% 2.0 mph NE3.2 kmh NE 5.0 mph8.0 kmh 30.07 in1018.3 mb 0.73 in18.5 mm 0.00 in0.0 mm 0.02 in0.5 mm
11:20 PM 68.5°F20.3°C -33.7°F-36.5°C 0% 1.0 mph NE1.6 kmh NE 4.0 mph6.4 kmh 30.07 in1018.3 mb 0.65 in16.5 mm 0.00 in0.0 mm 0.02 in0.5 mm
11:25 PM 68.5°F20.3°C -33.7°F-36.5°C 0% 1.0 mph NE1.6 kmh NE 3.0 mph4.8 kmh 30.07 in1018.3 mb 0.51 in13.0 mm 0.00 in0.0 mm 0.02 in0.5 mm
11:30 PM 68.4°F20.2°C -33.7°F-36.5°C 0% Calm Calm 2.0 mph3.2 kmh 30.07 in1018.3 mb 0.42 in10.7 mm 0.00 in0.0 mm 0.02 in0.5 mm
11:35 PM 68.4°F20.2°C -33.7°F-36.5°C 0% Calm Calm 2.0 mph3.2 kmh 30.07 in1018.3 mb 0.31 in7.9 mm 0.00 in0.0 mm 0.02 in0.5 mm
11:40 PM 68.5°F20.3°C -33.7°F-36.5°C 0% Calm Calm 2.0 mph3.2 kmh 30.07 in1018.3 mb 0.21 in5.3 mm 0.00 in0.0 mm 0.02 in0.5 mm
11:45 PM 68.5°F20.3°C -33.7°F-36.5°C 0% Calm Calm 1.0 mph1.6 kmh 30.07 in1018.3 mb 0.12 in3.0 mm 0.00 in0.0 mm 0.02 in0.5 mm
11:50 PM 68.6°F20.3°C -33.7°F-36.5°C 0% Calm Calm 2.0 mph3.2 kmh 30.07 in1018.3 mb 0.06 in1.5 mm 0.00 in0.0 mm 0.02 in0.5 mm
11:55 PM 68.6°F20.3°C -33.7°F-36.5°C 0% Calm Calm 2.0 mph3.2 kmh 30.07 in1018.3 mb 0.04 in1.0 mm 0.00 in0.0 mm 0.02 in0.5 mm